sensor_id;sensor_type;location;lat;lon;timestamp;temperature;humidity
15888;DHT22;56032;51.324;12.376;2022-09-09T00:00:44;16.10;99.90
15888;DHT22;56032;51.324;12.376;2022-09-09T00:03:17;16.10;99.90
15888;DHT22;56032;51.324;12.376;2022-09-09T00:05:50;16.00;99.90
15888;DHT22;56032;51.324;12.376;2022-09-09T00:08:21;16.00;99.90
15888;DHT22;56032;51.324;12.376;2022-09-09T00:10:51;15.90;99.90
15888;DHT22;56032;51.324;12.376;2022-09-09T00:13:22;16.00;99.90
15888;DHT22;56032;51.324;12.376;2022-09-09T00:15:54;15.90;99.90
15888;DHT22;56032;51.324;12.376;2022-09-09T00:18:27;15.90;99.90
15888;DHT22;56032;51.324;12.376;2022-09-09T00:20:58;15.90;99.90
15888;DHT22;56032;51.324;12.376;2022-09-09T00:23:30;15.90;99.90
15888;DHT22;56032;51.324;12.376;2022-09-09T00:26:01;15.80;99.90
15888;DHT22;56032;51.324;12.376;2022-09-09T00:28:31;15.80;99.90
15888;DHT22;56032;51.324;12.376;2022-09-09T00:31:04;15.80;99.90
15888;DHT22;56032;51.324;12.376;2022-09-09T00:33:36;15.80;99.90
15888;DHT22;56032;51.324;12.376;2022-09-09T00:36:07;15.80;99.90
15888;DHT22;56032;51.324;12.376;2022-09-09T00:38:37;15.80;99.90
15888;DHT22;56032;51.324;12.376;2022-09-09T00:41:09;15.70;99.90
15888;DHT22;56032;51.324;12.376;2022-09-09T00:43:39;15.70;99.90
15888;DHT22;56032;51.324;12.376;2022-09-09T00:49:04;15.70;99.90
15888;DHT22;56032;51.324;12.376;2022-09-09T00:51:38;15.70;99.90
15888;DHT22;56032;51.324;12.376;2022-09-09T00:54:13;15.70;99.90
15888;DHT22;56032;51.324;12.376;2022-09-09T00:56:45;15.70;99.90
15888;DHT22;56032;51.324;12.376;2022-09-09T00:59:16;15.70;99.90
15888;DHT22;56032;51.324;12.376;2022-09-09T01:01:54;15.60;99.90
15888;DHT22;56032;51.324;12.376;2022-09-09T01:07:11;15.70;99.90
15888;DHT22;56032;51.324;12.376;2022-09-09T01:09:45;15.60;99.90
15888;DHT22;56032;51.324;12.376;2022-09-09T01:12:23;15.60;99.90
15888;DHT22;56032;51.324;12.376;2022-09-09T01:14:52;15.60;99.90
15888;DHT22;56032;51.324;12.376;2022-09-09T01:17:22;15.60;99.90
15888;DHT22;56032;51.324;12.376;2022-09-09T01:19:55;15.60;99.90
15888;DHT22;56032;51.324;12.376;2022-09-09T01:22:28;15.60;99.90
15888;DHT22;56032;51.324;12.376;2022-09-09T01:25:13;15.60;99.90
15888;DHT22;56032;51.324;12.376;2022-09-09T01:27:48;15.60;99.90
15888;DHT22;56032;51.324;12.376;2022-09-09T01:30:17;15.60;99.90
15888;DHT22;56032;51.324;12.376;2022-09-09T01:32:46;15.60;99.90
15888;DHT22;56032;51.324;12.376;2022-09-09T01:35:18;15.50;99.90
15888;DHT22;56032;51.324;12.376;2022-09-09T01:37:49;15.50;99.90
15888;DHT22;56032;51.324;12.376;2022-09-09T01:40:18;15.50;99.90
15888;DHT22;56032;51.324;12.376;2022-09-09T01:42:48;15.60;99.90
15888;DHT22;56032;51.324;12.376;2022-09-09T01:45:18;15.60;99.90
15888;DHT22;56032;51.324;12.376;2022-09-09T01:47:46;15.50;99.90
15888;DHT22;56032;51.324;12.376;2022-09-09T01:50:15;15.60;99.90
15888;DHT22;56032;51.324;12.376;2022-09-09T01:52:44;15.60;99.90
15888;DHT22;56032;51.324;12.376;2022-09-09T01:55:13;15.60;99.90
15888;DHT22;56032;51.324;12.376;2022-09-09T01:57:43;15.60;99.90
15888;DHT22;56032;51.324;12.376;2022-09-09T02:00:17;15.50;99.90
15888;DHT22;56032;51.324;12.376;2022-09-09T02:02:48;15.50;99.90
15888;DHT22;56032;51.324;12.376;2022-09-09T02:05:22;15.50;99.90
15888;DHT22;56032;51.324;12.376;2022-09-09T02:07:54;15.40;99.90
15888;DHT22;56032;51.324;12.376;2022-09-09T02:10:27;15.40;99.90
15888;DHT22;56032;51.324;12.376;2022-09-09T02:12:59;15.40;99.90
15888;DHT22;56032;51.324;12.376;2022-09-09T02:15:32;15.40;99.90
15888;DHT22;56032;51.324;12.376;2022-09-09T02:18:02;15.40;99.90
15888;DHT22;56032;51.324;12.376;2022-09-09T02:20:34;15.40;99.90
15888;DHT22;56032;51.324;12.376;2022-09-09T02:23:04;15.30;99.90
15888;DHT22;56032;51.324;12.376;2022-09-09T02:25:33;15.40;99.90
15888;DHT22;56032;51.324;12.376;2022-09-09T02:28:02;15.40;99.90
15888;DHT22;56032;51.324;12.376;2022-09-09T02:30:33;15.40;99.90
15888;DHT22;56032;51.324;12.376;2022-09-09T02:33:02;15.30;99.90
15888;DHT22;56032;51.324;12.376;2022-09-09T02:35:33;15.30;99.90
15888;DHT22;56032;51.324;12.376;2022-09-09T02:38:04;15.30;99.90
15888;DHT22;56032;51.324;12.376;2022-09-09T02:40:33;15.30;99.90
15888;DHT22;56032;51.324;12.376;2022-09-09T02:43:01;15.30;99.90
15888;DHT22;56032;51.324;12.376;2022-09-09T02:45:31;15.30;99.90
15888;DHT22;56032;51.324;12.376;2022-09-09T02:48:05;15.30;99.90
15888;DHT22;56032;51.324;12.376;2022-09-09T02:50:35;15.30;99.90
15888;DHT22;56032;51.324;12.376;2022-09-09T02:53:06;15.30;99.90
15888;DHT22;56032;51.324;12.376;2022-09-09T02:55:40;15.30;99.90
15888;DHT22;56032;51.324;12.376;2022-09-09T02:58:10;15.30;99.90
15888;DHT22;56032;51.324;12.376;2022-09-09T03:00:39;15.20;99.90
15888;DHT22;56032;51.324;12.376;2022-09-09T03:03:10;15.20;99.90
15888;DHT22;56032;51.324;12.376;2022-09-09T03:05:38;15.20;99.90
15888;DHT22;56032;51.324;12.376;2022-09-09T03:08:09;15.20;99.90
15888;DHT22;56032;51.324;12.376;2022-09-09T03:10:38;15.20;99.90
15888;DHT22;56032;51.324;12.376;2022-09-09T03:13:06;15.10;99.90
15888;DHT22;56032;51.324;12.376;2022-09-09T03:15:34;15.10;99.90
15888;DHT22;56032;51.324;12.376;2022-09-09T03:18:03;15.10;99.90
15888;DHT22;56032;51.324;12.376;2022-09-09T03:20:32;15.20;99.90
15888;DHT22;56032;51.324;12.376;2022-09-09T03:23:00;15.10;99.90
15888;DHT22;56032;51.324;12.376;2022-09-09T03:25:29;15.10;99.90
15888;DHT22;56032;51.324;12.376;2022-09-09T03:27:57;15.10;99.90
15888;DHT22;56032;51.324;12.376;2022-09-09T03:30:26;15.10;99.90
15888;DHT22;56032;51.324;12.376;2022-09-09T03:32:54;15.10;99.90
15888;DHT22;56032;51.324;12.376;2022-09-09T03:35:23;15.10;99.90
15888;DHT22;56032;51.324;12.376;2022-09-09T03:37:54;15.10;99.90
15888;DHT22;56032;51.324;12.376;2022-09-09T03:40:22;15.10;99.90
15888;DHT22;56032;51.324;12.376;2022-09-09T03:42:52;15.10;99.90
15888;DHT22;56032;51.324;12.376;2022-09-09T03:45:21;15.10;99.90
15888;DHT22;56032;51.324;12.376;2022-09-09T03:47:49;15.10;99.90
15888;DHT22;56032;51.324;12.376;2022-09-09T03:50:17;15.10;99.90
15888;DHT22;56032;51.324;12.376;2022-09-09T03:52:46;15.10;99.90
15888;DHT22;56032;51.324;12.376;2022-09-09T03:55:18;15.10;99.90
15888;DHT22;56032;51.324;12.376;2022-09-09T03:57:47;15.10;99.90
15888;DHT22;56032;51.324;12.376;2022-09-09T04:00:16;15.00;99.90
15888;DHT22;56032;51.324;12.376;2022-09-09T04:02:44;15.10;99.90
15888;DHT22;56032;51.324;12.376;2022-09-09T04:05:12;15.10;99.90
15888;DHT22;56032;51.324;12.376;2022-09-09T04:07:41;15.10;99.90
15888;DHT22;56032;51.324;12.376;2022-09-09T04:10:09;15.00;99.90
15888;DHT22;56032;51.324;12.376;2022-09-09T04:12:40;15.10;99.90
15888;DHT22;56032;51.324;12.376;2022-09-09T04:15:16;15.00;99.90
15888;DHT22;56032;51.324;12.376;2022-09-09T04:17:45;15.00;99.90
15888;DHT22;56032;51.324;12.376;2022-09-09T04:20:14;15.00;99.90
15888;DHT22;56032;51.324;12.376;2022-09-09T04:25:33;15.00;99.90
15888;DHT22;56032;51.324;12.376;2022-09-09T04:28:04;15.00;99.90
15888;DHT22;56032;51.324;12.376;2022-09-09T04:30:34;15.10;99.90
15888;DHT22;56032;51.324;12.376;2022-09-09T04:33:03;15.10;99.90
15888;DHT22;56032;51.324;12.376;2022-09-09T04:35:32;15.10;99.90
15888;DHT22;56032;51.324;12.376;2022-09-09T04:38:01;15.10;99.90
15888;DHT22;56032;51.324;12.376;2022-09-09T04:46:07;15.10;99.90
15888;DHT22;56032;51.324;12.376;2022-09-09T04:48:36;15.10;99.90
15888;DHT22;56032;51.324;12.376;2022-09-09T04:51:05;15.10;99.90
15888;DHT22;56032;51.324;12.376;2022-09-09T04:59:26;15.10;99.90
15888;DHT22;56032;51.324;12.376;2022-09-09T05:01:56;15.10;99.90
15888;DHT22;56032;51.324;12.376;2022-09-09T05:04:24;15.10;99.90
15888;DHT22;56032;51.324;12.376;2022-09-09T05:06:53;15.10;99.90
15888;DHT22;56032;51.324;12.376;2022-09-09T05:09:21;15.10;99.90
15888;DHT22;56032;51.324;12.376;2022-09-09T05:11:49;15.20;99.90
15888;DHT22;56032;51.324;12.376;2022-09-09T05:14:18;15.30;99.90
15888;DHT22;56032;51.324;12.376;2022-09-09T05:16:49;15.40;99.90
15888;DHT22;56032;51.324;12.376;2022-09-09T05:24:58;15.60;99.90
15888;DHT22;56032;51.324;12.376;2022-09-09T05:27:27;15.60;99.90
15888;DHT22;56032;51.324;12.376;2022-09-09T05:29:55;15.60;99.90
15888;DHT22;56032;51.324;12.376;2022-09-09T05:32:24;15.60;99.90
15888;DHT22;56032;51.324;12.376;2022-09-09T05:34:53;15.60;99.90
15888;DHT22;56032;51.324;12.376;2022-09-09T05:37:21;15.60;99.90
15888;DHT22;56032;51.324;12.376;2022-09-09T05:39:52;15.70;99.90
15888;DHT22;56032;51.324;12.376;2022-09-09T05:42:22;15.70;99.90
15888;DHT22;56032;51.324;12.376;2022-09-09T05:44:51;15.70;99.90
15888;DHT22;56032;51.324;12.376;2022-09-09T05:47:20;15.80;99.90
15888;DHT22;56032;51.324;12.376;2022-09-09T05:52:36;15.90;99.90
15888;DHT22;56032;51.324;12.376;2022-09-09T05:55:07;15.90;99.90
15888;DHT22;56032;51.324;12.376;2022-09-09T06:01:08;16.00;99.90
15888;DHT22;56032;51.324;12.376;2022-09-09T06:03:38;16.10;99.90
15888;DHT22;56032;51.324;12.376;2022-09-09T06:06:09;16.00;99.90
15888;DHT22;56032;51.324;12.376;2022-09-09T06:11:29;16.10;99.90
15888;DHT22;56032;51.324;12.376;2022-09-09T06:13:58;16.20;99.90
15888;DHT22;56032;51.324;12.376;2022-09-09T06:19:37;16.40;99.90
15888;DHT22;56032;51.324;12.376;2022-09-09T06:22:08;16.40;99.90
15888;DHT22;56032;51.324;12.376;2022-09-09T06:24:39;16.50;99.90
15888;DHT22;56032;51.324;12.376;2022-09-09T06:27:08;16.50;99.90
15888;DHT22;56032;51.324;12.376;2022-09-09T06:29:37;16.60;99.90
15888;DHT22;56032;51.324;12.376;2022-09-09T06:32:05;16.60;99.90
15888;DHT22;56032;51.324;12.376;2022-09-09T06:34:35;16.70;99.90
15888;DHT22;56032;51.324;12.376;2022-09-09T06:37:04;16.70;99.90
15888;DHT22;56032;51.324;12.376;2022-09-09T06:39:34;16.80;99.90
15888;DHT22;56032;51.324;12.376;2022-09-09T06:42:03;16.70;99.90
15888;DHT22;56032;51.324;12.376;2022-09-09T06:44:32;16.80;99.90
15888;DHT22;56032;51.324;12.376;2022-09-09T06:47:01;16.90;99.90
15888;DHT22;56032;51.324;12.376;2022-09-09T06:49:30;16.90;99.90
15888;DHT22;56032;51.324;12.376;2022-09-09T06:54:48;17.00;99.90
15888;DHT22;56032;51.324;12.376;2022-09-09T07:00:06;17.10;99.90
15888;DHT22;56032;51.324;12.376;2022-09-09T07:02:36;17.20;99.90
15888;DHT22;56032;51.324;12.376;2022-09-09T07:05:08;17.30;99.90
15888;DHT22;56032;51.324;12.376;2022-09-09T07:07:38;17.60;99.90
15888;DHT22;56032;51.324;12.376;2022-09-09T07:10:08;17.60;99.90
15888;DHT22;56032;51.324;12.376;2022-09-09T07:12:37;17.60;99.90
15888;DHT22;56032;51.324;12.376;2022-09-09T07:15:07;17.60;99.90
15888;DHT22;56032;51.324;12.376;2022-09-09T07:17:35;17.70;99.90
15888;DHT22;56032;51.324;12.376;2022-09-09T07:20:04;17.90;99.90
15888;DHT22;56032;51.324;12.376;2022-09-09T07:22:33;18.00;99.90
15888;DHT22;56032;51.324;12.376;2022-09-09T07:25:04;18.20;99.90
15888;DHT22;56032;51.324;12.376;2022-09-09T07:27:34;18.40;99.90
15888;DHT22;56032;51.324;12.376;2022-09-09T07:30:03;18.50;99.90
15888;DHT22;56032;51.324;12.376;2022-09-09T07:32:32;18.60;99.90
15888;DHT22;56032;51.324;12.376;2022-09-09T07:35:01;18.70;99.90
15888;DHT22;56032;51.324;12.376;2022-09-09T07:37:29;18.80;99.90
15888;DHT22;56032;51.324;12.376;2022-09-09T07:39:57;18.80;99.90
15888;DHT22;56032;51.324;12.376;2022-09-09T07:42:25;18.90;99.90
15888;DHT22;56032;51.324;12.376;2022-09-09T07:44:57;18.90;99.90
15888;DHT22;56032;51.324;12.376;2022-09-09T07:47:26;18.80;99.90
15888;DHT22;56032;51.324;12.376;2022-09-09T07:55:32;18.70;99.90
15888;DHT22;56032;51.324;12.376;2022-09-09T07:58:00;18.80;99.90
15888;DHT22;56032;51.324;12.376;2022-09-09T08:03:20;19.00;99.90
15888;DHT22;56032;51.324;12.376;2022-09-09T08:05:49;19.30;99.90
15888;DHT22;56032;51.324;12.376;2022-09-09T08:08:19;19.60;99.90
15888;DHT22;56032;51.324;12.376;2022-09-09T08:10:48;19.70;99.90
15888;DHT22;56032;51.324;12.376;2022-09-09T08:13:16;19.80;99.90
15888;DHT22;56032;51.324;12.376;2022-09-09T08:15:45;20.10;99.90
15888;DHT22;56032;51.324;12.376;2022-09-09T08:18:14;20.30;99.90
15888;DHT22;56032;51.324;12.376;2022-09-09T08:20:43;20.50;99.90
15888;DHT22;56032;51.324;12.376;2022-09-09T08:23:12;20.40;99.90
15888;DHT22;56032;51.324;12.376;2022-09-09T08:25:40;20.30;99.90
15888;DHT22;56032;51.324;12.376;2022-09-09T08:28:10;20.20;99.90
15888;DHT22;56032;51.324;12.376;2022-09-09T08:30:40;20.10;99.90
15888;DHT22;56032;51.324;12.376;2022-09-09T08:33:11;20.00;99.90
15888;DHT22;56032;51.324;12.376;2022-09-09T08:35:40;20.20;99.90
15888;DHT22;56032;51.324;12.376;2022-09-09T08:38:18;20.20;99.90
15888;DHT22;56032;51.324;12.376;2022-09-09T08:40:50;20.30;99.90
15888;DHT22;56032;51.324;12.376;2022-09-09T08:43:20;20.20;99.90
15888;DHT22;56032;51.324;12.376;2022-09-09T08:45:50;20.30;99.90
15888;DHT22;56032;51.324;12.376;2022-09-09T08:48:30;20.40;99.90
15888;DHT22;56032;51.324;12.376;2022-09-09T08:51:04;20.50;99.90
15888;DHT22;56032;51.324;12.376;2022-09-09T08:53:37;20.60;99.90
15888;DHT22;56032;51.324;12.376;2022-09-09T08:56:08;20.70;99.90
15888;DHT22;56032;51.324;12.376;2022-09-09T08:58:40;20.80;99.90
15888;DHT22;56032;51.324;12.376;2022-09-09T09:04:00;20.80;99.90
15888;DHT22;56032;51.324;12.376;2022-09-09T09:06:35;21.00;99.90
15888;DHT22;56032;51.324;12.376;2022-09-09T09:11:59;21.20;99.90
15888;DHT22;56032;51.324;12.376;2022-09-09T09:14:31;21.30;99.90
15888;DHT22;56032;51.324;12.376;2022-09-09T09:17:04;21.30;99.90
15888;DHT22;56032;51.324;12.376;2022-09-09T09:19:34;21.40;99.90
15888;DHT22;56032;51.324;12.376;2022-09-09T09:22:06;21.60;99.90
15888;DHT22;56032;51.324;12.376;2022-09-09T09:24:40;21.70;99.90
15888;DHT22;56032;51.324;12.376;2022-09-09T09:27:13;21.80;99.90
15888;DHT22;56032;51.324;12.376;2022-09-09T09:32:52;21.90;99.90
15888;DHT22;56032;51.324;12.376;2022-09-09T09:35:22;21.90;99.90
15888;DHT22;56032;51.324;12.376;2022-09-09T09:37:53;22.10;99.90
15888;DHT22;56032;51.324;12.376;2022-09-09T09:43:32;22.20;99.90
15888;DHT22;56032;51.324;12.376;2022-09-09T09:48:58;22.40;99.90
15888;DHT22;56032;51.324;12.376;2022-09-09T09:51:27;22.40;99.90
15888;DHT22;56032;51.324;12.376;2022-09-09T09:54:03;22.20;99.90
15888;DHT22;56032;51.324;12.376;2022-09-09T09:56:32;22.40;99.90
15888;DHT22;56032;51.324;12.376;2022-09-09T09:59:03;22.60;99.90
15888;DHT22;56032;51.324;12.376;2022-09-09T10:01:49;22.50;99.90
15888;DHT22;56032;51.324;12.376;2022-09-09T10:04:19;22.40;99.90
15888;DHT22;56032;51.324;12.376;2022-09-09T10:06:50;22.40;99.90
15888;DHT22;56032;51.324;12.376;2022-09-09T10:09:20;22.20;99.90
15888;DHT22;56032;51.324;12.376;2022-09-09T10:11:52;22.10;99.90
15888;DHT22;56032;51.324;12.376;2022-09-09T10:14:27;22.00;99.90
15888;DHT22;56032;51.324;12.376;2022-09-09T10:19:49;21.90;99.90
15888;DHT22;56032;51.324;12.376;2022-09-09T10:31:07;22.30;99.90
15888;DHT22;56032;51.324;12.376;2022-09-09T10:33:41;22.60;99.90
15888;DHT22;56032;51.324;12.376;2022-09-09T10:36:16;22.70;99.90
15888;DHT22;56032;51.324;12.376;2022-09-09T10:38:46;22.70;99.90
15888;DHT22;56032;51.324;12.376;2022-09-09T10:41:19;22.70;99.90
15888;DHT22;56032;51.324;12.376;2022-09-09T10:46:41;22.90;99.90
15888;DHT22;56032;51.324;12.376;2022-09-09T10:49:18;22.70;99.90
15888;DHT22;56032;51.324;12.376;2022-09-09T10:51:51;22.50;99.90
15888;DHT22;56032;51.324;12.376;2022-09-09T10:57:11;22.50;99.90
15888;DHT22;56032;51.324;12.376;2022-09-09T10:59:41;22.80;99.90
15888;DHT22;56032;51.324;12.376;2022-09-09T11:02:15;22.80;99.90
15888;DHT22;56032;51.324;12.376;2022-09-09T11:04:48;22.90;99.90
15888;DHT22;56032;51.324;12.376;2022-09-09T11:07:28;22.90;99.90
15888;DHT22;56032;51.324;12.376;2022-09-09T11:10:01;22.80;99.90
15888;DHT22;56032;51.324;12.376;2022-09-09T11:18:11;23.20;99.90
15888;DHT22;56032;51.324;12.376;2022-09-09T11:20:43;22.80;99.90
15888;DHT22;56032;51.324;12.376;2022-09-09T11:23:13;22.60;99.90
15888;DHT22;56032;51.324;12.376;2022-09-09T11:25:47;22.50;99.90
15888;DHT22;56032;51.324;12.376;2022-09-09T11:28:26;22.60;99.90
15888;DHT22;56032;51.324;12.376;2022-09-09T11:31:00;23.00;99.90
15888;DHT22;56032;51.324;12.376;2022-09-09T11:33:40;23.40;99.90
15888;DHT22;56032;51.324;12.376;2022-09-09T11:36:16;23.70;99.90
15888;DHT22;56032;51.324;12.376;2022-09-09T11:38:51;23.90;99.90
15888;DHT22;56032;51.324;12.376;2022-09-09T11:41:20;23.90;99.90
15888;DHT22;56032;51.324;12.376;2022-09-09T11:43:50;24.00;99.90
15888;DHT22;56032;51.324;12.376;2022-09-09T11:46:19;23.90;99.90
15888;DHT22;56032;51.324;12.376;2022-09-09T11:48:59;23.50;99.90
15888;DHT22;56032;51.324;12.376;2022-09-09T11:51:29;23.10;99.90
15888;DHT22;56032;51.324;12.376;2022-09-09T11:53:59;22.80;99.90
15888;DHT22;56032;51.324;12.376;2022-09-09T11:56:30;22.70;99.90
15888;DHT22;56032;51.324;12.376;2022-09-09T11:59:00;22.70;99.90
15888;DHT22;56032;51.324;12.376;2022-09-09T12:01:34;22.70;99.90
15888;DHT22;56032;51.324;12.376;2022-09-09T12:04:13;23.10;99.90
15888;DHT22;56032;51.324;12.376;2022-09-09T12:06:50;23.40;99.90
15888;DHT22;56032;51.324;12.376;2022-09-09T12:12:21;23.70;99.90
15888;DHT22;56032;51.324;12.376;2022-09-09T12:14:57;23.80;99.90
15888;DHT22;56032;51.324;12.376;2022-09-09T12:17:29;23.90;99.90
15888;DHT22;56032;51.324;12.376;2022-09-09T12:20:08;23.90;99.90
15888;DHT22;56032;51.324;12.376;2022-09-09T12:22:44;24.00;99.90
15888;DHT22;56032;51.324;12.376;2022-09-09T12:25:20;24.00;99.90
15888;DHT22;56032;51.324;12.376;2022-09-09T12:27:57;23.90;99.90
15888;DHT22;56032;51.324;12.376;2022-09-09T12:30:31;23.50;99.90
15888;DHT22;56032;51.324;12.376;2022-09-09T12:33:06;23.20;99.90
15888;DHT22;56032;51.324;12.376;2022-09-09T12:35:38;23.00;99.90
15888;DHT22;56032;51.324;12.376;2022-09-09T12:38:09;23.40;99.90
15888;DHT22;56032;51.324;12.376;2022-09-09T12:40:41;23.70;99.90
15888;DHT22;56032;51.324;12.376;2022-09-09T12:43:17;24.00;99.90
15888;DHT22;56032;51.324;12.376;2022-09-09T12:45:45;24.10;99.90
15888;DHT22;56032;51.324;12.376;2022-09-09T12:48:16;24.20;99.90
15888;DHT22;56032;51.324;12.376;2022-09-09T12:50:49;24.20;99.70
15888;DHT22;56032;51.324;12.376;2022-09-09T12:53:19;24.30;99.80
15888;DHT22;56032;51.324;12.376;2022-09-09T12:55:52;24.30;99.60
15888;DHT22;56032;51.324;12.376;2022-09-09T12:58:22;24.40;99.50
15888;DHT22;56032;51.324;12.376;2022-09-09T13:00:52;24.40;99.20
15888;DHT22;56032;51.324;12.376;2022-09-09T13:03:23;24.40;99.40
15888;DHT22;56032;51.324;12.376;2022-09-09T13:05:57;24.50;99.50
15888;DHT22;56032;51.324;12.376;2022-09-09T13:08:27;24.50;99.50
15888;DHT22;56032;51.324;12.376;2022-09-09T13:10:56;24.50;99.10
15888;DHT22;56032;51.324;12.376;2022-09-09T13:13:31;24.50;98.40
15888;DHT22;56032;51.324;12.376;2022-09-09T13:16:02;24.30;97.20
15888;DHT22;56032;51.324;12.376;2022-09-09T13:18:32;24.10;97.60
15888;DHT22;56032;51.324;12.376;2022-09-09T13:24:22;23.50;98.90
15888;DHT22;56032;51.324;12.376;2022-09-09T13:26:54;23.30;99.90
15888;DHT22;56032;51.324;12.376;2022-09-09T13:29:24;23.10;99.90
15888;DHT22;56032;51.324;12.376;2022-09-09T13:31:53;23.00;99.90
15888;DHT22;56032;51.324;12.376;2022-09-09T13:34:26;22.90;99.90
15888;DHT22;56032;51.324;12.376;2022-09-09T13:39:28;22.90;99.90
15888;DHT22;56032;51.324;12.376;2022-09-09T13:41:57;22.90;99.90
15888;DHT22;56032;51.324;12.376;2022-09-09T13:44:25;22.90;99.90
15888;DHT22;56032;51.324;12.376;2022-09-09T13:47:02;22.80;99.90
15888;DHT22;56032;51.324;12.376;2022-09-09T13:49:36;22.90;99.90
15888;DHT22;56032;51.324;12.376;2022-09-09T13:52:08;22.90;99.90
15888;DHT22;56032;51.324;12.376;2022-09-09T13:54:39;22.80;99.90
15888;DHT22;56032;51.324;12.376;2022-09-09T13:57:14;22.60;99.90
15888;DHT22;56032;51.324;12.376;2022-09-09T13:59:43;22.50;99.90
15888;DHT22;56032;51.324;12.376;2022-09-09T14:02:32;21.80;99.90
15888;DHT22;56032;51.324;12.376;2022-09-09T14:05:01;21.00;99.90
15888;DHT22;56032;51.324;12.376;2022-09-09T14:07:30;20.20;99.90
15888;DHT22;56032;51.324;12.376;2022-09-09T14:10:00;19.40;99.90
15888;DHT22;56032;51.324;12.376;2022-09-09T14:12:29;19.30;99.90
15888;DHT22;56032;51.324;12.376;2022-09-09T14:14:58;19.20;99.90
15888;DHT22;56032;51.324;12.376;2022-09-09T14:17:27;19.00;99.90
15888;DHT22;56032;51.324;12.376;2022-09-09T14:19:57;18.90;99.90
15888;DHT22;56032;51.324;12.376;2022-09-09T14:22:26;18.90;99.90
15888;DHT22;56032;51.324;12.376;2022-09-09T14:24:55;19.00;99.90
15888;DHT22;56032;51.324;12.376;2022-09-09T14:27:25;19.10;99.90
15888;DHT22;56032;51.324;12.376;2022-09-09T14:29:54;19.30;99.90
15888;DHT22;56032;51.324;12.376;2022-09-09T14:32:23;19.40;99.90
15888;DHT22;56032;51.324;12.376;2022-09-09T14:34:51;19.40;99.90
15888;DHT22;56032;51.324;12.376;2022-09-09T14:37:21;19.60;99.90
15888;DHT22;56032;51.324;12.376;2022-09-09T14:39:53;19.70;99.90
15888;DHT22;56032;51.324;12.376;2022-09-09T14:42:22;19.70;99.90
15888;DHT22;56032;51.324;12.376;2022-09-09T14:44:53;19.60;99.90
15888;DHT22;56032;51.324;12.376;2022-09-09T14:47:21;19.60;99.90
15888;DHT22;56032;51.324;12.376;2022-09-09T14:49:50;19.70;99.90
15888;DHT22;56032;51.324;12.376;2022-09-09T14:52:20;19.80;99.90
15888;DHT22;56032;51.324;12.376;2022-09-09T14:54:48;19.90;99.90
15888;DHT22;56032;51.324;12.376;2022-09-09T14:57:17;19.90;99.90
15888;DHT22;56032;51.324;12.376;2022-09-09T14:59:46;19.90;99.90
15888;DHT22;56032;51.324;12.376;2022-09-09T15:02:19;19.90;99.90
15888;DHT22;56032;51.324;12.376;2022-09-09T15:04:47;20.00;99.90
15888;DHT22;56032;51.324;12.376;2022-09-09T15:07:17;20.30;99.90
15888;DHT22;56032;51.324;12.376;2022-09-09T15:09:48;20.60;99.90
15888;DHT22;56032;51.324;12.376;2022-09-09T15:12:17;20.80;99.90
15888;DHT22;56032;51.324;12.376;2022-09-09T15:14:46;21.00;99.90
15888;DHT22;56032;51.324;12.376;2022-09-09T15:17:14;21.10;99.90
15888;DHT22;56032;51.324;12.376;2022-09-09T15:19:44;21.10;99.90
15888;DHT22;56032;51.324;12.376;2022-09-09T15:22:12;21.20;99.90
15888;DHT22;56032;51.324;12.376;2022-09-09T15:24:41;21.20;99.90
15888;DHT22;56032;51.324;12.376;2022-09-09T15:27:09;21.20;99.90
15888;DHT22;56032;51.324;12.376;2022-09-09T15:29:37;21.20;99.90
15888;DHT22;56032;51.324;12.376;2022-09-09T15:32:06;21.30;99.90
15888;DHT22;56032;51.324;12.376;2022-09-09T15:34:34;21.40;99.90
15888;DHT22;56032;51.324;12.376;2022-09-09T15:37:04;21.40;99.90
15888;DHT22;56032;51.324;12.376;2022-09-09T15:39:35;21.60;99.90
15888;DHT22;56032;51.324;12.376;2022-09-09T15:42:04;21.70;99.90
15888;DHT22;56032;51.324;12.376;2022-09-09T15:47:20;21.90;99.90
15888;DHT22;56032;51.324;12.376;2022-09-09T15:49:49;21.80;99.90
15888;DHT22;56032;51.324;12.376;2022-09-09T15:52:19;21.80;99.90
15888;DHT22;56032;51.324;12.376;2022-09-09T15:57:37;21.70;99.90
15888;DHT22;56032;51.324;12.376;2022-09-09T16:00:08;21.60;99.90
15888;DHT22;56032;51.324;12.376;2022-09-09T16:02:41;21.60;99.90
15888;DHT22;56032;51.324;12.376;2022-09-09T16:05:10;21.50;99.90
15888;DHT22;56032;51.324;12.376;2022-09-09T16:07:40;21.50;99.90
15888;DHT22;56032;51.324;12.376;2022-09-09T16:10:09;21.50;99.90
15888;DHT22;56032;51.324;12.376;2022-09-09T16:12:37;21.50;99.90
15888;DHT22;56032;51.324;12.376;2022-09-09T16:15:06;21.40;99.90
15888;DHT22;56032;51.324;12.376;2022-09-09T16:17:35;21.70;99.90
15888;DHT22;56032;51.324;12.376;2022-09-09T16:20:05;21.40;99.90
15888;DHT22;56032;51.324;12.376;2022-09-09T16:22:36;21.40;99.90
15888;DHT22;56032;51.324;12.376;2022-09-09T16:25:06;21.40;99.90
15888;DHT22;56032;51.324;12.376;2022-09-09T16:27:35;21.30;99.90
15888;DHT22;56032;51.324;12.376;2022-09-09T16:30:04;21.30;99.90
15888;DHT22;56032;51.324;12.376;2022-09-09T16:32:32;21.30;99.90
15888;DHT22;56032;51.324;12.376;2022-09-09T16:35:01;21.30;99.90
15888;DHT22;56032;51.324;12.376;2022-09-09T16:37:31;21.20;99.90
15888;DHT22;56032;51.324;12.376;2022-09-09T16:40:01;21.10;99.90
15888;DHT22;56032;51.324;12.376;2022-09-09T16:42:32;21.10;99.90
15888;DHT22;56032;51.324;12.376;2022-09-09T16:45:05;21.00;99.90
15888;DHT22;56032;51.324;12.376;2022-09-09T16:47:34;21.00;99.90
15888;DHT22;56032;51.324;12.376;2022-09-09T16:50:02;21.00;99.90
15888;DHT22;56032;51.324;12.376;2022-09-09T16:52:30;20.90;99.90
15888;DHT22;56032;51.324;12.376;2022-09-09T16:54:58;20.80;99.90
15888;DHT22;56032;51.324;12.376;2022-09-09T16:57:27;20.70;99.90
15888;DHT22;56032;51.324;12.376;2022-09-09T16:59:58;20.60;99.90
15888;DHT22;56032;51.324;12.376;2022-09-09T17:02:26;20.50;99.90
15888;DHT22;56032;51.324;12.376;2022-09-09T17:04:55;20.50;99.90
15888;DHT22;56032;51.324;12.376;2022-09-09T17:07:23;20.40;99.90
15888;DHT22;56032;51.324;12.376;2022-09-09T17:09:51;20.30;99.90
15888;DHT22;56032;51.324;12.376;2022-09-09T17:12:29;20.30;99.90
15888;DHT22;56032;51.324;12.376;2022-09-09T17:14:59;20.20;99.90
15888;DHT22;56032;51.324;12.376;2022-09-09T17:17:29;20.20;99.90
15888;DHT22;56032;51.324;12.376;2022-09-09T17:20:01;20.20;99.90